sensor_id;sensor_type;location;lat;lon;timestamp;P1;durP1;ratioP1;P2;durP2;ratioP2
15049;SDS011;7622;42.724;23.250;2023-03-31T00:00:25;15.13;;;9.43;;
15049;SDS011;7622;42.724;23.250;2023-03-31T00:02:52;11.70;;;8.73;;
15049;SDS011;7622;42.724;23.250;2023-03-31T00:05:20;13.27;;;9.63;;
15049;SDS011;7622;42.724;23.250;2023-03-31T00:07:52;15.30;;;9.63;;
15049;SDS011;7622;42.724;23.250;2023-03-31T00:10:26;17.20;;;9.90;;
15049;SDS011;7622;42.724;23.250;2023-03-31T00:12:53;15.00;;;9.70;;
15049;SDS011;7622;42.724;23.250;2023-03-31T00:15:20;15.53;;;10.23;;
15049;SDS011;7622;42.724;23.250;2023-03-31T00:17:47;17.73;;;10.17;;
15049;SDS011;7622;42.724;23.250;2023-03-31T00:20:14;19.83;;;10.57;;
15049;SDS011;7622;42.724;23.250;2023-03-31T00:22:41;17.37;;;10.50;;
15049;SDS011;7622;42.724;23.250;2023-03-31T00:25:11;15.87;;;10.03;;
15049;SDS011;7622;42.724;23.250;2023-03-31T00:27:41;18.30;;;10.43;;
15049;SDS011;7622;42.724;23.250;2023-03-31T00:30:09;18.17;;;9.97;;
15049;SDS011;7622;42.724;23.250;2023-03-31T00:32:37;19.97;;;10.80;;
15049;SDS011;7622;42.724;23.250;2023-03-31T00:35:04;14.40;;;9.17;;
15049;SDS011;7622;42.724;23.250;2023-03-31T00:37:30;12.33;;;8.57;;
15049;SDS011;7622;42.724;23.250;2023-03-31T00:39:58;12.67;;;8.47;;
15049;SDS011;7622;42.724;23.250;2023-03-31T00:42:25;19.17;;;8.70;;
15049;SDS011;7622;42.724;23.250;2023-03-31T00:47:51;11.37;;;7.90;;
15049;SDS011;7622;42.724;23.250;2023-03-31T00:50:21;11.67;;;6.73;;
15049;SDS011;7622;42.724;23.250;2023-03-31T00:52:53;12.80;;;6.60;;
15049;SDS011;7622;42.724;23.250;2023-03-31T00:55:26;11.00;;;5.90;;
15049;SDS011;7622;42.724;23.250;2023-03-31T00:57:58;9.37;;;5.70;;
15049;SDS011;7622;42.724;23.250;2023-03-31T01:00:30;7.57;;;5.20;;
15049;SDS011;7622;42.724;23.250;2023-03-31T01:02:58;7.57;;;5.43;;
15049;SDS011;7622;42.724;23.250;2023-03-31T01:05:28;13.70;;;5.67;;
15049;SDS011;7622;42.724;23.250;2023-03-31T01:07:58;9.67;;;5.63;;
15049;SDS011;7622;42.724;23.250;2023-03-31T01:10:27;13.83;;;6.23;;
15049;SDS011;7622;42.724;23.250;2023-03-31T01:12:55;11.20;;;5.90;;
15049;SDS011;7622;42.724;23.250;2023-03-31T01:15:23;13.47;;;5.77;;
15049;SDS011;7622;42.724;23.250;2023-03-31T01:17:51;13.97;;;6.17;;
15049;SDS011;7622;42.724;23.250;2023-03-31T01:20:22;9.67;;;5.03;;
15049;SDS011;7622;42.724;23.250;2023-03-31T01:26:30;9.03;;;6.60;;
15049;SDS011;7622;42.724;23.250;2023-03-31T01:29:27;12.73;;;6.13;;
15049;SDS011;7622;42.724;23.250;2023-03-31T01:32:26;10.23;;;6.30;;
15049;SDS011;7622;42.724;23.250;2023-03-31T01:41:47;4.83;;;2.93;;
15049;SDS011;7622;42.724;23.250;2023-03-31T01:44:22;3.20;;;2.30;;
15049;SDS011;7622;42.724;23.250;2023-03-31T01:47:00;6.83;;;2.57;;
15049;SDS011;7622;42.724;23.250;2023-03-31T01:49:31;4.63;;;2.67;;
15049;SDS011;7622;42.724;23.250;2023-03-31T01:52:05;3.77;;;2.23;;
15049;SDS011;7622;42.724;23.250;2023-03-31T01:54:42;5.27;;;2.00;;
15049;SDS011;7622;42.724;23.250;2023-03-31T01:57:17;6.00;;;2.17;;
15049;SDS011;7622;42.724;23.250;2023-03-31T01:59:49;4.37;;;1.80;;
15049;SDS011;7622;42.724;23.250;2023-03-31T02:02:24;2.73;;;2.10;;
15049;SDS011;7622;42.724;23.250;2023-03-31T02:04:56;3.37;;;1.97;;
15049;SDS011;7622;42.724;23.250;2023-03-31T02:07:26;5.73;;;2.03;;
15049;SDS011;7622;42.724;23.250;2023-03-31T02:09:59;3.17;;;2.03;;
15049;SDS011;7622;42.724;23.250;2023-03-31T02:12:32;3.17;;;2.13;;
15049;SDS011;7622;42.724;23.250;2023-03-31T02:15:02;2.40;;;1.50;;
15049;SDS011;7622;42.724;23.250;2023-03-31T02:17:31;2.00;;;1.80;;
15049;SDS011;7622;42.724;23.250;2023-03-31T02:20:00;4.07;;;1.47;;
15049;SDS011;7622;42.724;23.250;2023-03-31T02:22:32;4.03;;;1.97;;
15049;SDS011;7622;42.724;23.250;2023-03-31T02:25:03;3.70;;;2.00;;
15049;SDS011;7622;42.724;23.250;2023-03-31T02:27:38;3.30;;;1.70;;
15049;SDS011;7622;42.724;23.250;2023-03-31T02:30:08;3.20;;;1.90;;
15049;SDS011;7622;42.724;23.250;2023-03-31T02:32:36;4.33;;;1.80;;
15049;SDS011;7622;42.724;23.250;2023-03-31T02:35:05;3.67;;;2.07;;
15049;SDS011;7622;42.724;23.250;2023-03-31T02:37:35;3.23;;;1.83;;
15049;SDS011;7622;42.724;23.250;2023-03-31T02:40:05;4.67;;;2.07;;
15049;SDS011;7622;42.724;23.250;2023-03-31T02:42:35;5.10;;;2.20;;
15049;SDS011;7622;42.724;23.250;2023-03-31T02:45:04;4.57;;;2.30;;
15049;SDS011;7622;42.724;23.250;2023-03-31T02:47:52;4.97;;;2.60;;
15049;SDS011;7622;42.724;23.250;2023-03-31T02:50:20;7.53;;;2.70;;
15049;SDS011;7622;42.724;23.250;2023-03-31T02:52:55;8.17;;;3.33;;
15049;SDS011;7622;42.724;23.250;2023-03-31T02:55:35;7.33;;;2.83;;
15049;SDS011;7622;42.724;23.250;2023-03-31T02:58:26;3.00;;;2.30;;
15049;SDS011;7622;42.724;23.250;2023-03-31T03:01:11;6.00;;;2.40;;
15049;SDS011;7622;42.724;23.250;2023-03-31T03:04:04;8.57;;;3.00;;
15049;SDS011;7622;42.724;23.250;2023-03-31T03:06:46;5.80;;;3.37;;
15049;SDS011;7622;42.724;23.250;2023-03-31T03:09:31;5.20;;;2.67;;
15049;SDS011;7622;42.724;23.250;2023-03-31T03:12:08;5.03;;;2.93;;
15049;SDS011;7622;42.724;23.250;2023-03-31T03:14:42;5.87;;;3.03;;
15049;SDS011;7622;42.724;23.250;2023-03-31T03:17:15;8.63;;;3.67;;
15049;SDS011;7622;42.724;23.250;2023-03-31T03:19:49;9.77;;;3.77;;
15049;SDS011;7622;42.724;23.250;2023-03-31T03:22:18;8.83;;;4.13;;
15049;SDS011;7622;42.724;23.250;2023-03-31T03:24:45;8.77;;;3.43;;
15049;SDS011;7622;42.724;23.250;2023-03-31T03:27:11;8.77;;;4.00;;
15049;SDS011;7622;42.724;23.250;2023-03-31T03:29:38;8.43;;;3.60;;
15049;SDS011;7622;42.724;23.250;2023-03-31T03:32:05;8.87;;;3.83;;
15049;SDS011;7622;42.724;23.250;2023-03-31T03:34:33;12.53;;;4.23;;
15049;SDS011;7622;42.724;23.250;2023-03-31T03:37:00;6.80;;;3.63;;
15049;SDS011;7622;42.724;23.250;2023-03-31T03:39:27;13.20;;;5.60;;
15049;SDS011;7622;42.724;23.250;2023-03-31T03:41:54;12.57;;;4.60;;
15049;SDS011;7622;42.724;23.250;2023-03-31T03:44:20;11.27;;;4.27;;
15049;SDS011;7622;42.724;23.250;2023-03-31T03:46:47;9.00;;;4.80;;
15049;SDS011;7622;42.724;23.250;2023-03-31T03:49:14;14.23;;;6.50;;
15049;SDS011;7622;42.724;23.250;2023-03-31T03:51:42;13.40;;;5.97;;
15049;SDS011;7622;42.724;23.250;2023-03-31T03:54:09;9.93;;;5.60;;
15049;SDS011;7622;42.724;23.250;2023-03-31T03:56:36;15.17;;;5.57;;
15049;SDS011;7622;42.724;23.250;2023-03-31T03:59:02;9.93;;;5.47;;
15049;SDS011;7622;42.724;23.250;2023-03-31T04:01:29;18.13;;;7.87;;
15049;SDS011;7622;42.724;23.250;2023-03-31T04:03:56;12.37;;;7.60;;
15049;SDS011;7622;42.724;23.250;2023-03-31T04:06:23;21.90;;;9.13;;
15049;SDS011;7622;42.724;23.250;2023-03-31T04:08:51;23.20;;;11.23;;
15049;SDS011;7622;42.724;23.250;2023-03-31T04:11:18;19.63;;;9.70;;
15049;SDS011;7622;42.724;23.250;2023-03-31T04:13:45;13.80;;;8.17;;
15049;SDS011;7622;42.724;23.250;2023-03-31T04:16:13;10.23;;;6.77;;
15049;SDS011;7622;42.724;23.250;2023-03-31T04:18:40;12.37;;;5.50;;
15049;SDS011;7622;42.724;23.250;2023-03-31T04:21:08;6.87;;;5.23;;
15049;SDS011;7622;42.724;23.250;2023-03-31T04:23:37;9.10;;;5.40;;
15049;SDS011;7622;42.724;23.250;2023-03-31T04:26:08;9.73;;;4.87;;
15049;SDS011;7622;42.724;23.250;2023-03-31T04:28:35;7.43;;;3.67;;
15049;SDS011;7622;42.724;23.250;2023-03-31T04:31:03;13.07;;;3.93;;
15049;SDS011;7622;42.724;23.250;2023-03-31T04:33:31;7.97;;;3.40;;
15049;SDS011;7622;42.724;23.250;2023-03-31T04:36:02;4.60;;;3.40;;
15049;SDS011;7622;42.724;23.250;2023-03-31T04:38:31;8.00;;;3.33;;
15049;SDS011;7622;42.724;23.250;2023-03-31T04:40:58;5.27;;;3.07;;
15049;SDS011;7622;42.724;23.250;2023-03-31T04:43:26;6.23;;;3.23;;
15049;SDS011;7622;42.724;23.250;2023-03-31T04:45:53;7.27;;;3.30;;
15049;SDS011;7622;42.724;23.250;2023-03-31T04:48:20;6.40;;;3.07;;
15049;SDS011;7622;42.724;23.250;2023-03-31T04:50:47;6.93;;;3.50;;
15049;SDS011;7622;42.724;23.250;2023-03-31T04:53:13;4.57;;;2.93;;
15049;SDS011;7622;42.724;23.250;2023-03-31T04:55:40;5.37;;;3.40;;
15049;SDS011;7622;42.724;23.250;2023-03-31T04:58:07;6.07;;;3.30;;
15049;SDS011;7622;42.724;23.250;2023-03-31T05:00:35;3.13;;;2.43;;
15049;SDS011;7622;42.724;23.250;2023-03-31T05:03:02;5.00;;;2.60;;
15049;SDS011;7622;42.724;23.250;2023-03-31T05:05:28;3.20;;;2.90;;
15049;SDS011;7622;42.724;23.250;2023-03-31T05:07:55;3.60;;;2.00;;
15049;SDS011;7622;42.724;23.250;2023-03-31T05:10:22;2.63;;;1.83;;
15049;SDS011;7622;42.724;23.250;2023-03-31T05:12:49;3.30;;;2.30;;
15049;SDS011;7622;42.724;23.250;2023-03-31T05:15:16;2.07;;;1.73;;
15049;SDS011;7622;42.724;23.250;2023-03-31T05:17:44;2.30;;;1.50;;
15049;SDS011;7622;42.724;23.250;2023-03-31T05:20:11;2.40;;;1.80;;
15049;SDS011;7622;42.724;23.250;2023-03-31T05:22:39;4.87;;;2.23;;
15049;SDS011;7622;42.724;23.250;2023-03-31T05:25:07;3.57;;;2.47;;
15049;SDS011;7622;42.724;23.250;2023-03-31T05:27:35;3.33;;;2.60;;
15049;SDS011;7622;42.724;23.250;2023-03-31T05:30:03;3.07;;;2.03;;
15049;SDS011;7622;42.724;23.250;2023-03-31T05:32:30;7.73;;;3.10;;
15049;SDS011;7622;42.724;23.250;2023-03-31T05:34:58;4.30;;;2.40;;
15049;SDS011;7622;42.724;23.250;2023-03-31T05:37:25;7.47;;;2.03;;
15049;SDS011;7622;42.724;23.250;2023-03-31T05:39:52;5.97;;;2.40;;
15049;SDS011;7622;42.724;23.250;2023-03-31T05:42:19;5.40;;;2.30;;
15049;SDS011;7622;42.724;23.250;2023-03-31T05:44:45;4.37;;;2.30;;
15049;SDS011;7622;42.724;23.250;2023-03-31T05:47:12;4.93;;;2.70;;
15049;SDS011;7622;42.724;23.250;2023-03-31T05:49:39;3.97;;;2.47;;
15049;SDS011;7622;42.724;23.250;2023-03-31T05:52:07;7.47;;;2.73;;
15049;SDS011;7622;42.724;23.250;2023-03-31T05:54:35;6.17;;;2.63;;
15049;SDS011;7622;42.724;23.250;2023-03-31T05:57:01;6.80;;;2.67;;
15049;SDS011;7622;42.724;23.250;2023-03-31T05:59:29;4.73;;;2.10;;
15049;SDS011;7622;42.724;23.250;2023-03-31T06:01:56;7.53;;;2.30;;
15049;SDS011;7622;42.724;23.250;2023-03-31T06:04:23;7.93;;;2.30;;
15049;SDS011;7622;42.724;23.250;2023-03-31T06:06:50;3.47;;;2.27;;
15049;SDS011;7622;42.724;23.250;2023-03-31T06:09:19;5.43;;;2.70;;
15049;SDS011;7622;42.724;23.250;2023-03-31T06:11:46;2.43;;;2.23;;
15049;SDS011;7622;42.724;23.250;2023-03-31T06:14:13;5.27;;;2.70;;
15049;SDS011;7622;42.724;23.250;2023-03-31T06:16:40;6.53;;;2.30;;
15049;SDS011;7622;42.724;23.250;2023-03-31T06:19:07;5.17;;;2.70;;
15049;SDS011;7622;42.724;23.250;2023-03-31T06:21:33;4.30;;;2.37;;
15049;SDS011;7622;42.724;23.250;2023-03-31T06:24:00;6.13;;;2.90;;
15049;SDS011;7622;42.724;23.250;2023-03-31T06:26:28;4.43;;;2.60;;
15049;SDS011;7622;42.724;23.250;2023-03-31T06:28:55;6.47;;;3.27;;
15049;SDS011;7622;42.724;23.250;2023-03-31T06:31:23;5.07;;;2.63;;
15049;SDS011;7622;42.724;23.250;2023-03-31T06:33:51;3.53;;;2.97;;
15049;SDS011;7622;42.724;23.250;2023-03-31T06:36:19;4.67;;;2.87;;
15049;SDS011;7622;42.724;23.250;2023-03-31T06:38:47;2.93;;;2.13;;
15049;SDS011;7622;42.724;23.250;2023-03-31T06:41:14;5.70;;;2.53;;
15049;SDS011;7622;42.724;23.250;2023-03-31T06:43:44;5.93;;;2.50;;
15049;SDS011;7622;42.724;23.250;2023-03-31T06:46:10;3.83;;;2.30;;
15049;SDS011;7622;42.724;23.250;2023-03-31T06:48:37;5.83;;;3.00;;
15049;SDS011;7622;42.724;23.250;2023-03-31T06:51:05;8.00;;;2.80;;
15049;SDS011;7622;42.724;23.250;2023-03-31T06:53:33;7.50;;;2.90;;
15049;SDS011;7622;42.724;23.250;2023-03-31T06:56:01;6.53;;;2.60;;
15049;SDS011;7622;42.724;23.250;2023-03-31T06:58:28;7.13;;;3.10;;
15049;SDS011;7622;42.724;23.250;2023-03-31T07:00:56;6.40;;;3.97;;
15049;SDS011;7622;42.724;23.250;2023-03-31T07:03:23;9.30;;;3.10;;
15049;SDS011;7622;42.724;23.250;2023-03-31T07:05:50;6.03;;;3.17;;
15049;SDS011;7622;42.724;23.250;2023-03-31T07:08:18;5.87;;;3.53;;
15049;SDS011;7622;42.724;23.250;2023-03-31T07:10:45;9.67;;;3.17;;
15049;SDS011;7622;42.724;23.250;2023-03-31T07:13:13;9.13;;;2.70;;
15049;SDS011;7622;42.724;23.250;2023-03-31T07:15:41;4.07;;;2.43;;
15049;SDS011;7622;42.724;23.250;2023-03-31T07:18:09;4.47;;;2.87;;
15049;SDS011;7622;42.724;23.250;2023-03-31T07:20:36;3.43;;;2.50;;
15049;SDS011;7622;42.724;23.250;2023-03-31T07:23:04;3.73;;;2.83;;
15049;SDS011;7622;42.724;23.250;2023-03-31T07:25:31;6.27;;;3.43;;
15049;SDS011;7622;42.724;23.250;2023-03-31T07:27:58;6.73;;;3.10;;
15049;SDS011;7622;42.724;23.250;2023-03-31T07:30:25;5.53;;;3.40;;
15049;SDS011;7622;42.724;23.250;2023-03-31T07:32:52;13.83;;;4.27;;
15049;SDS011;7622;42.724;23.250;2023-03-31T07:35:21;7.13;;;4.97;;
15049;SDS011;7622;42.724;23.250;2023-03-31T07:37:48;5.50;;;3.60;;
15049;SDS011;7622;42.724;23.250;2023-03-31T07:40:17;8.63;;;4.50;;
15049;SDS011;7622;42.724;23.250;2023-03-31T07:42:46;7.57;;;3.43;;
15049;SDS011;7622;42.724;23.250;2023-03-31T07:45:15;8.47;;;4.33;;
15049;SDS011;7622;42.724;23.250;2023-03-31T07:47:43;4.93;;;3.20;;
15049;SDS011;7622;42.724;23.250;2023-03-31T07:50:11;3.73;;;3.10;;
15049;SDS011;7622;42.724;23.250;2023-03-31T07:52:39;8.37;;;3.23;;
15049;SDS011;7622;42.724;23.250;2023-03-31T07:55:07;6.83;;;3.10;;
15049;SDS011;7622;42.724;23.250;2023-03-31T07:57:35;4.83;;;3.23;;
15049;SDS011;7622;42.724;23.250;2023-03-31T08:00:02;7.53;;;2.83;;
15049;SDS011;7622;42.724;23.250;2023-03-31T08:02:32;3.77;;;3.00;;
15049;SDS011;7622;42.724;23.250;2023-03-31T08:05:00;6.27;;;3.37;;
15049;SDS011;7622;42.724;23.250;2023-03-31T08:07:27;3.50;;;3.20;;
15049;SDS011;7622;42.724;23.250;2023-03-31T08:09:56;6.70;;;3.07;;
15049;SDS011;7622;42.724;23.250;2023-03-31T08:12:23;5.77;;;3.23;;
15049;SDS011;7622;42.724;23.250;2023-03-31T08:14:50;7.73;;;2.77;;
15049;SDS011;7622;42.724;23.250;2023-03-31T08:17:16;5.70;;;2.80;;
15049;SDS011;7622;42.724;23.250;2023-03-31T08:19:43;4.27;;;2.57;;
15049;SDS011;7622;42.724;23.250;2023-03-31T08:22:10;3.17;;;2.80;;
15049;SDS011;7622;42.724;23.250;2023-03-31T08:24:37;5.00;;;3.17;;
15049;SDS011;7622;42.724;23.250;2023-03-31T08:27:05;8.20;;;3.20;;
15049;SDS011;7622;42.724;23.250;2023-03-31T08:29:31;5.07;;;2.93;;
15049;SDS011;7622;42.724;23.250;2023-03-31T08:31:58;5.87;;;2.80;;
15049;SDS011;7622;42.724;23.250;2023-03-31T08:34:25;5.83;;;2.80;;
15049;SDS011;7622;42.724;23.250;2023-03-31T08:36:52;8.47;;;2.83;;
15049;SDS011;7622;42.724;23.250;2023-03-31T08:39:19;6.87;;;3.53;;
15049;SDS011;7622;42.724;23.250;2023-03-31T08:41:48;5.93;;;3.00;;
15049;SDS011;7622;42.724;23.250;2023-03-31T08:44:21;11.83;;;3.17;;
15049;SDS011;7622;42.724;23.250;2023-03-31T08:46:55;6.93;;;2.60;;
15049;SDS011;7622;42.724;23.250;2023-03-31T08:49:24;6.90;;;2.87;;
15049;SDS011;7622;42.724;23.250;2023-03-31T08:51:54;4.83;;;2.40;;
15049;SDS011;7622;42.724;23.250;2023-03-31T08:54:26;6.13;;;2.67;;
15049;SDS011;7622;42.724;23.250;2023-03-31T08:56:57;9.27;;;2.37;;
15049;SDS011;7622;42.724;23.250;2023-03-31T08:59:27;42.17;;;4.43;;
15049;SDS011;7622;42.724;23.250;2023-03-31T09:01:57;5.43;;;2.40;;
15049;SDS011;7622;42.724;23.250;2023-03-31T09:07:38;4.23;;;3.30;;
15049;SDS011;7622;42.724;23.250;2023-03-31T09:10:18;8.27;;;2.70;;
15049;SDS011;7622;42.724;23.250;2023-03-31T09:12:56;3.20;;;1.77;;
15049;SDS011;7622;42.724;23.250;2023-03-31T09:15:31;7.13;;;2.43;;
15049;SDS011;7622;42.724;23.250;2023-03-31T09:18:06;4.00;;;2.63;;
15049;SDS011;7622;42.724;23.250;2023-03-31T09:20:39;6.93;;;1.93;;
15049;SDS011;7622;42.724;23.250;2023-03-31T09:23:13;3.53;;;2.30;;
15049;SDS011;7622;42.724;23.250;2023-03-31T09:25:49;4.97;;;2.60;;
15049;SDS011;7622;42.724;23.250;2023-03-31T09:28:17;4.00;;;2.70;;
15049;SDS011;7622;42.724;23.250;2023-03-31T09:30:47;9.23;;;2.47;;
15049;SDS011;7622;42.724;23.250;2023-03-31T09:33:16;6.03;;;2.20;;
15049;SDS011;7622;42.724;23.250;2023-03-31T09:35:44;3.00;;;2.80;;
15049;SDS011;7622;42.724;23.250;2023-03-31T09:38:11;3.33;;;2.20;;
15049;SDS011;7622;42.724;23.250;2023-03-31T09:40:40;4.67;;;2.13;;
15049;SDS011;7622;42.724;23.250;2023-03-31T09:43:09;8.33;;;3.13;;
15049;SDS011;7622;42.724;23.250;2023-03-31T09:45:43;3.23;;;2.13;;
15049;SDS011;7622;42.724;23.250;2023-03-31T09:48:12;4.40;;;2.30;;
15049;SDS011;7622;42.724;23.250;2023-03-31T09:50:43;4.53;;;2.27;;
15049;SDS011;7622;42.724;23.250;2023-03-31T09:53:15;4.47;;;2.03;;
15049;SDS011;7622;42.724;23.250;2023-03-31T09:55:48;2.30;;;2.00;;
15049;SDS011;7622;42.724;23.250;2023-03-31T09:58:18;4.70;;;2.23;;
15049;SDS011;7622;42.724;23.250;2023-03-31T10:00:55;2.63;;;1.80;;
15049;SDS011;7622;42.724;23.250;2023-03-31T10:03:26;2.20;;;1.80;;
15049;SDS011;7622;42.724;23.250;2023-03-31T10:05:55;5.53;;;2.27;;
15049;SDS011;7622;42.724;23.250;2023-03-31T10:08:24;4.97;;;2.47;;
15049;SDS011;7622;42.724;23.250;2023-03-31T10:10:54;3.47;;;2.10;;
15049;SDS011;7622;42.724;23.250;2023-03-31T10:13:23;6.87;;;2.27;;
15049;SDS011;7622;42.724;23.250;2023-03-31T10:15:54;9.23;;;2.13;;
15049;SDS011;7622;42.724;23.250;2023-03-31T10:18:32;7.83;;;2.80;;
15049;SDS011;7622;42.724;23.250;2023-03-31T10:21:01;5.57;;;2.50;;
15049;SDS011;7622;42.724;23.250;2023-03-31T10:23:31;3.40;;;2.00;;
15049;SDS011;7622;42.724;23.250;2023-03-31T10:25:59;4.07;;;2.63;;
15049;SDS011;7622;42.724;23.250;2023-03-31T10:28:30;5.17;;;2.83;;
15049;SDS011;7622;42.724;23.250;2023-03-31T10:30:59;3.80;;;2.70;;
15049;SDS011;7622;42.724;23.250;2023-03-31T10:33:28;6.90;;;2.50;;
15049;SDS011;7622;42.724;23.250;2023-03-31T10:36:01;4.33;;;2.80;;
15049;SDS011;7622;42.724;23.250;2023-03-31T10:38:33;6.30;;;2.60;;
15049;SDS011;7622;42.724;23.250;2023-03-31T10:41:04;3.77;;;2.50;;
15049;SDS011;7622;42.724;23.250;2023-03-31T10:43:33;6.33;;;2.33;;
15049;SDS011;7622;42.724;23.250;2023-03-31T10:46:05;3.77;;;1.67;;
15049;SDS011;7622;42.724;23.250;2023-03-31T10:48:32;4.67;;;2.23;;
15049;SDS011;7622;42.724;23.250;2023-03-31T10:51:10;6.37;;;2.90;;
15049;SDS011;7622;42.724;23.250;2023-03-31T10:53:42;7.07;;;2.57;;
15049;SDS011;7622;42.724;23.250;2023-03-31T10:56:17;6.27;;;2.20;;
15049;SDS011;7622;42.724;23.250;2023-03-31T10:59:06;7.70;;;2.97;;
15049;SDS011;7622;42.724;23.250;2023-03-31T11:01:43;6.50;;;2.80;;
15049;SDS011;7622;42.724;23.250;2023-03-31T11:04:28;7.20;;;2.40;;
15049;SDS011;7622;42.724;23.250;2023-03-31T11:07:12;6.40;;;2.47;;
15049;SDS011;7622;42.724;23.250;2023-03-31T11:09:53;2.27;;;2.07;;
15049;SDS011;7622;42.724;23.250;2023-03-31T11:12:30;3.13;;;2.50;;
15049;SDS011;7622;42.724;23.250;2023-03-31T11:15:06;4.73;;;2.47;;
15049;SDS011;7622;42.724;23.250;2023-03-31T11:17:46;5.70;;;2.77;;
15049;SDS011;7622;42.724;23.250;2023-03-31T11:20:32;3.10;;;2.10;;
15049;SDS011;7622;42.724;23.250;2023-03-31T11:23:09;8.37;;;2.80;;
15049;SDS011;7622;42.724;23.250;2023-03-31T11:25:44;5.67;;;2.83;;
15049;SDS011;7622;42.724;23.250;2023-03-31T11:28:21;12.30;;;2.90;;
15049;SDS011;7622;42.724;23.250;2023-03-31T11:30:57;4.60;;;2.43;;
15049;SDS011;7622;42.724;23.250;2023-03-31T11:33:40;4.23;;;2.60;;
15049;SDS011;7622;42.724;23.250;2023-03-31T11:36:25;5.33;;;3.00;;
15049;SDS011;7622;42.724;23.250;2023-03-31T11:39:16;8.63;;;4.60;;
15049;SDS011;7622;42.724;23.250;2023-03-31T11:41:53;16.73;;;4.20;;
15049;SDS011;7622;42.724;23.250;2023-03-31T11:44:26;7.37;;;3.53;;
15049;SDS011;7622;42.724;23.250;2023-03-31T11:46:56;9.97;;;3.83;;
15049;SDS011;7622;42.724;23.250;2023-03-31T11:49:27;7.03;;;3.40;;
15049;SDS011;7622;42.724;23.250;2023-03-31T11:52:02;9.93;;;3.17;;
15049;SDS011;7622;42.724;23.250;2023-03-31T11:54:36;3.93;;;2.53;;
15049;SDS011;7622;42.724;23.250;2023-03-31T11:57:08;5.70;;;2.80;;
15049;SDS011;7622;42.724;23.250;2023-03-31T11:59:41;7.40;;;2.77;;
15049;SDS011;7622;42.724;23.250;2023-03-31T12:02:14;5.80;;;2.40;;
15049;SDS011;7622;42.724;23.250;2023-03-31T12:04:45;12.00;;;2.50;;
15049;SDS011;7622;42.724;23.250;2023-03-31T12:07:19;4.80;;;2.47;;
15049;SDS011;7622;42.724;23.250;2023-03-31T12:09:52;4.03;;;2.50;;
15049;SDS011;7622;42.724;23.250;2023-03-31T12:12:28;6.17;;;2.97;;
15049;SDS011;7622;42.724;23.250;2023-03-31T12:15:00;6.33;;;2.33;;
15049;SDS011;7622;42.724;23.250;2023-03-31T12:17:32;3.43;;;2.20;;
15049;SDS011;7622;42.724;23.250;2023-03-31T12:20:02;4.10;;;2.43;;
15049;SDS011;7622;42.724;23.250;2023-03-31T12:22:35;11.90;;;2.47;;
15049;SDS011;7622;42.724;23.250;2023-03-31T12:25:10;3.87;;;2.50;;
15049;SDS011;7622;42.724;23.250;2023-03-31T12:27:39;6.30;;;2.47;;
15049;SDS011;7622;42.724;23.250;2023-03-31T12:30:09;3.90;;;2.33;;
15049;SDS011;7622;42.724;23.250;2023-03-31T12:32:39;7.70;;;2.60;;
15049;SDS011;7622;42.724;23.250;2023-03-31T12:35:12;12.50;;;2.80;;
15049;SDS011;7622;42.724;23.250;2023-03-31T12:40:44;3.47;;;2.13;;
15049;SDS011;7622;42.724;23.250;2023-03-31T12:46:23;4.17;;;2.43;;
15049;SDS011;7622;42.724;23.250;2023-03-31T12:49:07;4.10;;;2.00;;
15049;SDS011;7622;42.724;23.250;2023-03-31T12:51:45;5.37;;;2.00;;
15049;SDS011;7622;42.724;23.250;2023-03-31T12:54:26;6.10;;;2.63;;
15049;SDS011;7622;42.724;23.250;2023-03-31T12:57:13;15.10;;;10.07;;
15049;SDS011;7622;42.724;23.250;2023-03-31T12:59:44;2.73;;;1.97;;
15049;SDS011;7622;42.724;23.250;2023-03-31T13:02:20;6.87;;;3.20;;
15049;SDS011;7622;42.724;23.250;2023-03-31T13:04:50;12.53;;;5.20;;
15049;SDS011;7622;42.724;23.250;2023-03-31T13:10:24;5.13;;;2.40;;
15049;SDS011;7622;42.724;23.250;2023-03-31T13:12:59;4.97;;;2.17;;
15049;SDS011;7622;42.724;23.250;2023-03-31T13:15:28;3.93;;;2.27;;
15049;SDS011;7622;42.724;23.250;2023-03-31T13:17:57;7.50;;;1.77;;
15049;SDS011;7622;42.724;23.250;2023-03-31T13:20:29;12.97;;;2.47;;
15049;SDS011;7622;42.724;23.250;2023-03-31T13:23:00;4.57;;;2.00;;
15049;SDS011;7622;42.724;23.250;2023-03-31T13:25:40;2.77;;;1.70;;
15049;SDS011;7622;42.724;23.250;2023-03-31T13:28:15;15.40;;;3.57;;
15049;SDS011;7622;42.724;23.250;2023-03-31T13:30:44;4.73;;;2.23;;
15049;SDS011;7622;42.724;23.250;2023-03-31T13:33:32;6.57;;;2.40;;
15049;SDS011;7622;42.724;23.250;2023-03-31T13:39:11;6.77;;;2.27;;
15049;SDS011;7622;42.724;23.250;2023-03-31T13:41:54;6.23;;;2.30;;
15049;SDS011;7622;42.724;23.250;2023-03-31T13:44:38;3.37;;;2.00;;
15049;SDS011;7622;42.724;23.250;2023-03-31T13:50:12;7.53;;;2.33;;
15049;SDS011;7622;42.724;23.250;2023-03-31T13:52:46;9.40;;;2.40;;
15049;SDS011;7622;42.724;23.250;2023-03-31T13:55:28;9.10;;;2.80;;
15049;SDS011;7622;42.724;23.250;2023-03-31T14:01:33;5.67;;;2.10;;
15049;SDS011;7622;42.724;23.250;2023-03-31T14:04:24;6.40;;;2.80;;
15049;SDS011;7622;42.724;23.250;2023-03-31T14:07:05;5.07;;;1.90;;
15049;SDS011;7622;42.724;23.250;2023-03-31T14:09:35;5.00;;;1.90;;
15049;SDS011;7622;42.724;23.250;2023-03-31T14:12:17;5.63;;;2.13;;
15049;SDS011;7622;42.724;23.250;2023-03-31T14:14:45;4.87;;;2.30;;
15049;SDS011;7622;42.724;23.250;2023-03-31T14:17:14;4.13;;;2.20;;
15049;SDS011;7622;42.724;23.250;2023-03-31T14:19:45;3.60;;;2.13;;
15049;SDS011;7622;42.724;23.250;2023-03-31T14:22:25;8.77;;;2.97;;
15049;SDS011;7622;42.724;23.250;2023-03-31T14:25:04;4.53;;;1.90;;
15049;SDS011;7622;42.724;23.250;2023-03-31T14:27:44;3.80;;;2.00;;
15049;SDS011;7622;42.724;23.250;2023-03-31T14:30:25;5.90;;;2.40;;
15049;SDS011;7622;42.724;23.250;2023-03-31T14:33:03;7.53;;;2.10;;
15049;SDS011;7622;42.724;23.250;2023-03-31T14:35:39;9.93;;;2.00;;
15049;SDS011;7622;42.724;23.250;2023-03-31T14:38:12;22.17;;;3.67;;
15049;SDS011;7622;42.724;23.250;2023-03-31T14:40:44;10.20;;;2.87;;
15049;SDS011;7622;42.724;23.250;2023-03-31T14:43:16;4.17;;;1.87;;
15049;SDS011;7622;42.724;23.250;2023-03-31T14:45:52;15.97;;;3.83;;
15049;SDS011;7622;42.724;23.250;2023-03-31T14:48:27;6.33;;;2.00;;
15049;SDS011;7622;42.724;23.250;2023-03-31T14:50:56;8.73;;;2.43;;
15049;SDS011;7622;42.724;23.250;2023-03-31T14:53:24;6.63;;;2.10;;
15049;SDS011;7622;42.724;23.250;2023-03-31T14:55:54;4.80;;;2.30;;
15049;SDS011;7622;42.724;23.250;2023-03-31T14:58:27;5.10;;;2.67;;
15049;SDS011;7622;42.724;23.250;2023-03-31T15:00:58;11.40;;;3.10;;
15049;SDS011;7622;42.724;23.250;2023-03-31T15:03:29;5.33;;;2.50;;
15049;SDS011;7622;42.724;23.250;2023-03-31T15:05:57;7.33;;;2.87;;
15049;SDS011;7622;42.724;23.250;2023-03-31T15:08:26;5.17;;;2.27;;
15049;SDS011;7622;42.724;23.250;2023-03-31T15:10:55;12.77;;;2.57;;
15049;SDS011;7622;42.724;23.250;2023-03-31T15:13:29;6.40;;;2.43;;
15049;SDS011;7622;42.724;23.250;2023-03-31T15:16:00;11.73;;;3.77;;
15049;SDS011;7622;42.724;23.250;2023-03-31T15:18:47;9.30;;;3.50;;
15049;SDS011;7622;42.724;23.250;2023-03-31T15:21:18;5.30;;;2.73;;
15049;SDS011;7622;42.724;23.250;2023-03-31T15:23:46;13.60;;;3.07;;
15049;SDS011;7622;42.724;23.250;2023-03-31T15:26:18;9.90;;;2.23;;
15049;SDS011;7622;42.724;23.250;2023-03-31T15:28:48;10.40;;;2.40;;
15049;SDS011;7622;42.724;23.250;2023-03-31T15:31:18;6.77;;;3.33;;
15049;SDS011;7622;42.724;23.250;2023-03-31T15:33:45;6.47;;;2.30;;
15049;SDS011;7622;42.724;23.250;2023-03-31T15:36:13;6.27;;;2.50;;
15049;SDS011;7622;42.724;23.250;2023-03-31T15:38:40;10.50;;;3.10;;
15049;SDS011;7622;42.724;23.250;2023-03-31T15:41:11;6.33;;;2.40;;
15049;SDS011;7622;42.724;23.250;2023-03-31T15:43:44;4.27;;;2.73;;